createdAt,value
2023-03-11T00:00:13.627Z,0.50
2023-03-11T00:02:41.062Z,0.50
2023-03-11T00:05:08.810Z,0.60
2023-03-11T00:07:37.662Z,0.50
2023-03-11T00:10:04.883Z,0.70
2023-03-11T00:12:31.677Z,0.60
2023-03-11T00:14:58.454Z,0.60
2023-03-11T00:17:25.245Z,0.50
2023-03-11T00:19:52.012Z,0.88
2023-03-11T00:22:18.779Z,0.88
2023-03-11T00:24:45.561Z,0.50
2023-03-11T00:27:12.315Z,0.73
2023-03-11T00:29:39.096Z,0.60
2023-03-11T00:32:06.060Z,0.65
2023-03-11T00:34:32.950Z,0.45
2023-03-11T00:36:59.689Z,0.70
2023-03-11T00:39:26.510Z,0.75
2023-03-11T00:41:53.794Z,0.77
2023-03-11T00:44:20.587Z,0.60
2023-03-11T00:46:47.338Z,0.50
2023-03-11T00:49:14.507Z,0.70
2023-03-11T00:51:41.318Z,0.50
2023-03-11T00:54:08.093Z,0.90
2023-03-11T00:56:34.873Z,0.63
2023-03-11T00:59:01.847Z,0.50
2023-03-11T01:01:28.801Z,0.50
2023-03-11T01:03:57.854Z,0.70
2023-03-11T01:06:27.863Z,0.60
2023-03-11T01:08:56.966Z,0.80
2023-03-11T01:11:23.729Z,0.80
2023-03-11T01:13:50.544Z,0.75
2023-03-11T01:16:17.399Z,0.70
2023-03-11T01:18:44.209Z,0.50
2023-03-11T01:21:10.986Z,0.80
2023-03-11T01:23:38.737Z,0.90
2023-03-11T01:26:05.513Z,0.85
2023-03-11T01:28:32.267Z,0.50
2023-03-11T01:30:59.059Z,0.68
2023-03-11T01:33:25.927Z,0.95
2023-03-11T01:35:53.054Z,0.80
2023-03-11T01:38:19.879Z,0.70
2023-03-11T01:40:49.462Z,0.80
2023-03-11T01:43:47.246Z,0.73
2023-03-11T01:46:25.027Z,0.63
2023-03-11T01:48:52.870Z,0.60
2023-03-11T01:51:28.297Z,0.70
2023-03-11T01:53:57.232Z,1.10
2023-03-11T01:56:24.634Z,0.95
2023-03-11T01:58:53.623Z,0.70
2023-03-11T02:01:22.090Z,0.57
2023-03-11T02:03:49.900Z,0.55
2023-03-11T02:06:20.499Z,0.70
2023-03-11T02:08:48.182Z,0.82
2023-03-11T02:11:28.363Z,0.65
2023-03-11T02:14:00.234Z,0.38
2023-03-11T02:16:27.230Z,0.73
2023-03-11T02:18:54.290Z,1.10
2023-03-11T02:21:31.396Z,0.50
2023-03-11T02:24:10.037Z,1.00
2023-03-11T02:26:43.368Z,0.70
2023-03-11T02:29:11.852Z,0.80
2023-03-11T02:31:42.902Z,0.80
2023-03-11T02:34:44.508Z,0.90
2023-03-11T02:37:13.782Z,0.50
2023-03-11T02:39:47.515Z,0.60
2023-03-11T02:42:32.247Z,0.85
2023-03-11T02:45:08.118Z,1.40
2023-03-11T02:47:36.058Z,0.73
2023-03-11T02:50:03.072Z,0.98
2023-03-11T02:52:32.042Z,1.10
2023-03-11T02:54:58.886Z,0.90
2023-03-11T02:57:25.724Z,0.73
2023-03-11T02:59:52.451Z,0.70
2023-03-11T03:02:19.250Z,0.68
2023-03-11T03:04:46.052Z,0.93
2023-03-11T03:07:12.778Z,0.90
2023-03-11T03:09:39.612Z,0.50
2023-03-11T03:12:06.796Z,0.77
2023-03-11T03:14:33.678Z,0.77
2023-03-11T03:17:00.586Z,0.77
2023-03-11T03:19:27.478Z,0.70
2023-03-11T03:21:54.334Z,0.70
2023-03-11T03:24:21.074Z,0.98
2023-03-11T03:26:47.852Z,0.70
2023-03-11T03:29:14.618Z,0.77
2023-03-11T03:31:41.529Z,0.90
2023-03-11T03:34:09.211Z,0.70
2023-03-11T03:36:35.965Z,0.60
2023-03-11T03:39:03.460Z,0.80
2023-03-11T03:41:30.357Z,0.80
2023-03-11T03:43:57.131Z,0.63
2023-03-11T03:46:24.342Z,0.90
2023-03-11T03:48:51.341Z,1.02
2023-03-11T03:51:18.750Z,0.75
2023-03-11T03:53:48.212Z,0.77
2023-03-11T03:56:17.827Z,0.70
2023-03-11T03:58:44.655Z,0.73
2023-03-11T04:01:12.043Z,0.60
2023-03-11T04:03:39.537Z,1.05
2023-03-11T04:06:21.647Z,0.85
2023-03-11T04:08:48.739Z,0.82
2023-03-11T04:11:15.538Z,0.70
2023-03-11T04:13:44.675Z,0.57
2023-03-11T04:16:17.890Z,0.77
2023-03-11T04:18:44.888Z,0.50
2023-03-11T04:21:11.749Z,0.43
2023-03-11T04:23:38.605Z,0.70
2023-03-11T04:26:05.580Z,1.27
2023-03-11T04:28:32.421Z,0.60
2023-03-11T04:30:59.302Z,0.50
2023-03-11T04:33:26.183Z,0.50
2023-03-11T04:35:53.243Z,0.40
2023-03-11T04:38:20.044Z,0.50
2023-03-11T04:40:46.840Z,0.60
2023-03-11T04:43:13.668Z,0.57
2023-03-11T04:45:42.363Z,0.60
2023-03-11T04:48:09.585Z,0.80
2023-03-11T04:50:36.332Z,0.63
2023-03-11T04:53:03.208Z,0.95
2023-03-11T04:55:29.997Z,0.70
2023-03-11T04:57:56.739Z,0.70
2023-03-11T05:00:25.214Z,0.60
2023-03-11T05:02:52.442Z,0.60
2023-03-11T05:05:20.198Z,0.63
2023-03-11T05:07:47.785Z,0.60
2023-03-11T05:10:15.288Z,0.80
2023-03-11T05:12:42.112Z,0.65
2023-03-11T05:15:09.067Z,0.80
2023-03-11T05:17:35.829Z,0.65
2023-03-11T05:20:02.697Z,0.98
2023-03-11T05:22:29.473Z,0.80
2023-03-11T05:24:56.256Z,0.73
2023-03-11T05:27:23.125Z,0.60
2023-03-11T05:29:49.920Z,0.88
2023-03-11T05:32:19.152Z,0.60
2023-03-11T05:34:46.119Z,0.70
2023-03-11T05:37:13.654Z,0.60
2023-03-11T05:39:40.927Z,0.57
2023-03-11T05:42:08.353Z,0.93
2023-03-11T05:44:35.396Z,1.05
2023-03-11T05:47:02.350Z,0.60
2023-03-11T05:49:29.144Z,0.75
2023-03-11T05:51:58.487Z,0.90
2023-03-11T05:54:25.633Z,0.75
2023-03-11T05:56:52.510Z,1.00
2023-03-11T05:59:19.253Z,0.70
2023-03-11T06:01:46.139Z,0.77
2023-03-11T06:04:13.649Z,0.70
2023-03-11T06:06:43.977Z,0.85
2023-03-11T06:09:14.073Z,1.00
2023-03-11T06:11:41.674Z,0.75
2023-03-11T06:14:13.171Z,0.60
2023-03-11T06:16:40.998Z,0.95
2023-03-11T06:19:07.883Z,0.80
2023-03-11T06:21:34.758Z,0.63
2023-03-11T06:24:01.652Z,0.80
2023-03-11T06:26:28.653Z,0.68
2023-03-11T06:28:55.502Z,0.50
2023-03-11T06:31:25.435Z,1.00
2023-03-11T06:33:53.012Z,0.80
2023-03-11T06:36:21.464Z,0.93
2023-03-11T06:38:50.152Z,0.80
2023-03-11T06:41:17.077Z,0.93
2023-03-11T06:43:43.879Z,0.60
2023-03-11T06:46:13.572Z,0.65
2023-03-11T06:48:40.466Z,0.80
2023-03-11T06:51:07.468Z,0.80
2023-03-11T06:53:34.637Z,1.65
2023-03-11T06:56:06.008Z,0.80
2023-03-11T06:58:34.717Z,0.70
2023-03-11T07:01:06.807Z,0.55
2023-03-11T07:03:33.808Z,0.80
2023-03-11T07:06:00.905Z,1.02
2023-03-11T07:08:28.474Z,0.70
2023-03-11T07:11:25.081Z,0.80
2023-03-11T07:13:53.025Z,1.20
2023-03-11T07:16:22.662Z,0.88
2023-03-11T07:18:50.564Z,1.30
2023-03-11T07:21:21.217Z,0.75
2023-03-11T07:23:49.901Z,0.82
2023-03-11T07:26:18.011Z,0.75
2023-03-11T07:28:44.979Z,0.80
2023-03-11T07:31:17.934Z,1.10
2023-03-11T07:33:45.698Z,0.85
2023-03-11T07:36:14.786Z,0.80
2023-03-11T07:38:42.224Z,0.80
2023-03-11T07:41:11.298Z,0.90
2023-03-11T07:43:38.827Z,1.52
2023-03-11T07:46:18.570Z,0.80
2023-03-11T07:48:46.289Z,1.00
2023-03-11T07:51:22.286Z,0.77
2023-03-11T07:53:49.969Z,1.10
2023-03-11T07:56:17.834Z,0.80
2023-03-11T07:58:45.895Z,0.60
2023-03-11T08:01:18.881Z,0.77
2023-03-11T08:03:47.816Z,0.70
2023-03-11T08:06:18.863Z,0.60
2023-03-11T08:08:46.504Z,0.60
2023-03-11T08:11:14.500Z,0.82
2023-03-11T08:13:42.962Z,0.60
2023-03-11T08:16:11.275Z,0.88
2023-03-11T08:18:38.223Z,0.70
2023-03-11T08:21:16.662Z,0.60
2023-03-11T08:23:44.051Z,0.60
2023-03-11T08:26:13.452Z,0.75
2023-03-11T08:28:40.359Z,0.65
2023-03-11T08:31:18.833Z,0.70
2023-03-11T08:33:50.073Z,0.70
2023-03-11T08:36:17.459Z,0.70
2023-03-11T08:38:44.604Z,0.70
2023-03-11T08:41:11.555Z,0.50
2023-03-11T08:43:38.527Z,0.75
2023-03-11T08:46:09.632Z,0.47
2023-03-11T08:48:39.324Z,0.60
2023-03-11T08:51:13.347Z,0.55
2023-03-11T08:53:40.857Z,0.60
2023-03-11T08:56:08.522Z,0.70
2023-03-11T08:58:35.438Z,0.40
2023-03-11T09:01:02.402Z,0.60
2023-03-11T09:03:32.714Z,0.55
2023-03-11T09:06:09.195Z,0.98
2023-03-11T09:08:36.233Z,0.90
2023-03-11T09:11:03.406Z,1.55
2023-03-11T09:13:30.184Z,1.02
2023-03-11T09:15:56.983Z,0.70
2023-03-11T09:18:24.186Z,0.93
2023-03-11T09:20:51.372Z,0.80
2023-03-11T09:23:18.862Z,1.25
2023-03-11T09:25:45.737Z,0.80
2023-03-11T09:28:12.533Z,1.00
2023-03-11T09:30:39.607Z,0.80
2023-03-11T09:33:06.375Z,0.50
2023-03-11T09:35:33.356Z,0.60
2023-03-11T09:38:00.171Z,1.30
2023-03-11T09:40:37.514Z,1.20
2023-03-11T09:43:24.246Z,0.80
2023-03-11T09:46:38.984Z,1.77
2023-03-11T09:49:22.663Z,1.17
2023-03-11T09:52:18.774Z,1.20
2023-03-11T09:54:48.878Z,0.90
2023-03-11T09:57:28.253Z,0.98
2023-03-11T09:59:55.935Z,0.70
2023-03-11T10:02:28.015Z,0.65
2023-03-11T10:05:09.845Z,0.65
2023-03-11T10:07:51.693Z,1.83
2023-03-11T10:10:18.638Z,1.52
2023-03-11T10:13:07.179Z,1.08
2023-03-11T10:15:49.036Z,1.05
2023-03-11T10:18:33.702Z,0.60
2023-03-11T10:21:04.398Z,0.70
2023-03-11T10:23:52.151Z,0.90
2023-03-11T10:26:29.782Z,1.00
2023-03-11T10:29:21.415Z,0.60
2023-03-11T10:32:00.087Z,0.65
2023-03-11T10:34:34.500Z,0.65
2023-03-11T10:37:10.194Z,0.60
2023-03-11T10:39:38.186Z,0.77
2023-03-11T10:42:10.516Z,0.43
2023-03-11T10:44:42.352Z,0.50
2023-03-11T10:47:24.327Z,0.40
2023-03-11T10:49:52.620Z,0.35
2023-03-11T10:52:20.232Z,0.40
2023-03-11T10:54:58.748Z,1.42
2023-03-11T10:57:27.113Z,1.00
2023-03-11T10:59:59.386Z,1.05
2023-03-11T11:02:38.320Z,0.50
2023-03-11T11:05:27.765Z,0.73
2023-03-11T11:08:19.480Z,1.40
2023-03-11T11:10:57.773Z,1.20
2023-03-11T11:13:28.000Z,0.90
2023-03-11T11:15:54.961Z,0.77
2023-03-11T11:18:42.008Z,0.60
2023-03-11T11:21:16.193Z,0.50
2023-03-11T11:23:52.608Z,0.60
2023-03-11T11:26:26.031Z,1.10
2023-03-11T11:29:10.845Z,1.30
2023-03-11T11:31:39.121Z,1.90
2023-03-11T11:34:27.578Z,1.15
2023-03-11T11:36:57.239Z,1.23
2023-03-11T11:39:27.679Z,0.73
2023-03-11T11:41:56.066Z,0.60
2023-03-11T11:44:33.523Z,0.88
2023-03-11T11:47:11.871Z,0.80
2023-03-11T11:49:48.938Z,0.73
2023-03-11T11:52:36.584Z,0.50
2023-03-11T11:55:12.278Z,0.90
2023-03-11T11:57:39.157Z,0.80
2023-03-11T12:00:21.133Z,0.95
2023-03-11T12:03:07.275Z,0.70
2023-03-11T12:05:58.397Z,0.65
2023-03-11T12:08:51.166Z,0.77
2023-03-11T12:11:32.765Z,0.70
2023-03-11T12:14:25.372Z,0.35
2023-03-11T12:17:04.145Z,0.45
2023-03-11T12:19:41.102Z,0.43
2023-03-11T12:22:21.762Z,0.70
2023-03-11T12:25:22.011Z,0.70
2023-03-11T12:27:58.779Z,0.40
2023-03-11T12:30:33.197Z,0.40
2023-03-11T12:33:09.695Z,0.40
2023-03-11T12:35:37.130Z,0.57
2023-03-11T12:38:17.695Z,0.30
2023-03-11T12:40:44.471Z,0.50
2023-03-11T12:43:36.291Z,0.60
2023-03-11T12:46:08.148Z,0.30
2023-03-11T12:48:36.309Z,0.40
2023-03-11T12:51:03.240Z,0.57
2023-03-11T12:53:42.283Z,0.70
2023-03-11T12:56:44.174Z,0.80
2023-03-11T12:59:29.201Z,0.93
2023-03-11T13:02:05.041Z,0.70
2023-03-11T13:04:50.414Z,0.70
2023-03-11T13:07:23.043Z,0.65
2023-03-11T13:10:07.923Z,0.70
2023-03-11T13:12:49.428Z,0.80
2023-03-11T13:15:21.953Z,0.68
2023-03-11T13:18:01.762Z,0.60
2023-03-11T13:20:43.506Z,0.73
2023-03-11T13:23:26.680Z,0.55
2023-03-11T13:25:53.831Z,0.52
2023-03-11T13:28:45.473Z,0.60
2023-03-11T13:31:34.121Z,0.35
2023-03-11T13:34:15.242Z,0.82
2023-03-11T13:37:04.653Z,0.80
2023-03-11T13:40:04.971Z,0.95
2023-03-11T13:42:42.247Z,0.80
2023-03-11T13:45:25.548Z,1.23
2023-03-11T13:47:54.554Z,1.95
2023-03-11T13:50:36.979Z,2.17
2023-03-11T13:53:10.420Z,1.45
2023-03-11T13:55:46.999Z,1.50
2023-03-11T13:58:27.928Z,1.30
2023-03-11T14:01:01.151Z,1.00
2023-03-11T14:03:40.566Z,1.00
2023-03-11T14:06:11.693Z,0.82
2023-03-11T14:08:39.434Z,0.98
2023-03-11T14:11:11.824Z,0.68
2023-03-11T14:13:41.368Z,1.10
2023-03-11T14:16:15.932Z,0.60
2023-03-11T14:18:46.396Z,0.40
2023-03-11T14:21:16.563Z,0.75
2023-03-11T14:23:49.022Z,0.90
2023-03-11T14:26:29.164Z,0.80
2023-03-11T14:29:01.865Z,0.85
2023-03-11T14:31:40.445Z,0.52
2023-03-11T14:34:10.270Z,0.93
2023-03-11T14:36:45.102Z,0.63
2023-03-11T14:39:32.317Z,1.08
2023-03-11T14:42:06.007Z,0.82
2023-03-11T14:44:36.733Z,1.13
2023-03-11T14:47:13.532Z,0.60
2023-03-11T14:49:41.911Z,1.02
2023-03-11T14:52:43.525Z,1.02
2023-03-11T14:55:41.386Z,0.70
2023-03-11T14:58:37.195Z,0.82
2023-03-11T15:01:19.391Z,0.90
2023-03-11T15:04:07.092Z,0.85
2023-03-11T15:06:35.050Z,1.23
2023-03-11T15:09:10.227Z,1.20
2023-03-11T15:11:46.083Z,1.05
2023-03-11T15:14:33.223Z,0.90
2023-03-11T15:17:42.588Z,1.10
2023-03-11T15:20:37.607Z,0.70
2023-03-11T15:23:06.367Z,0.70
2023-03-11T15:25:36.340Z,0.60
2023-03-11T15:28:26.377Z,0.73
2023-03-11T15:31:27.598Z,0.80
2023-03-11T15:33:56.716Z,1.20
2023-03-11T15:36:31.862Z,1.33
2023-03-11T15:39:18.204Z,1.00
2023-03-11T15:42:06.785Z,0.80
2023-03-11T15:44:41.174Z,0.63
2023-03-11T15:47:19.354Z,0.77
2023-03-11T15:49:47.025Z,0.55
2023-03-11T15:52:14.574Z,0.63
2023-03-11T15:54:44.194Z,0.50
2023-03-11T15:57:26.634Z,0.50
2023-03-11T15:59:55.061Z,0.50
2023-03-11T16:02:27.181Z,0.80
2023-03-11T16:04:54.565Z,0.65
2023-03-11T16:07:33.004Z,0.60
2023-03-11T16:10:05.896Z,0.60
2023-03-11T16:12:32.735Z,0.68
2023-03-11T16:14:59.483Z,0.70
2023-03-11T16:17:27.553Z,0.88
2023-03-11T16:19:58.560Z,1.27
2023-03-11T16:22:34.483Z,1.83
2023-03-11T16:25:02.446Z,4.90
2023-03-11T16:27:29.542Z,4.38
2023-03-11T16:29:56.461Z,2.72
2023-03-11T16:32:23.315Z,2.25
2023-03-11T16:34:50.118Z,1.38
2023-03-11T16:37:20.740Z,1.10
2023-03-11T16:39:48.588Z,0.85
2023-03-11T16:42:23.441Z,0.63
2023-03-11T16:44:50.745Z,0.70
2023-03-11T16:47:18.060Z,0.90
2023-03-11T16:49:44.818Z,0.57
2023-03-11T16:52:11.678Z,0.57
2023-03-11T16:54:38.470Z,0.50
2023-03-11T16:57:05.237Z,0.70
2023-03-11T16:59:31.968Z,0.50
2023-03-11T17:01:59.493Z,0.55
2023-03-11T17:04:26.327Z,0.30
2023-03-11T17:06:53.106Z,0.45
2023-03-11T17:09:20.781Z,0.20
2023-03-11T17:11:49.915Z,0.30
2023-03-11T17:14:17.649Z,0.40
2023-03-11T17:16:45.249Z,0.32
2023-03-11T17:19:12.173Z,0.40
2023-03-11T17:21:39.719Z,0.40
2023-03-11T17:24:07.279Z,0.50
2023-03-11T17:26:34.186Z,0.30
2023-03-11T17:29:01.040Z,0.63
2023-03-11T17:31:28.240Z,0.40
2023-03-11T17:34:04.261Z,0.40
2023-03-11T17:36:31.007Z,0.30
2023-03-11T17:38:57.787Z,0.40
2023-03-11T17:41:24.542Z,0.47
2023-03-11T17:43:51.733Z,0.32
2023-03-11T17:46:20.550Z,0.40
2023-03-11T17:48:48.831Z,0.50
2023-03-11T17:51:19.104Z,0.35
2023-03-11T17:53:47.375Z,2.92
2023-03-11T17:56:16.230Z,2.60
2023-03-11T17:58:43.578Z,2.15
2023-03-11T18:01:16.685Z,1.40
2023-03-11T18:03:43.766Z,1.10
2023-03-11T18:06:11.439Z,1.10
2023-03-11T18:08:38.361Z,1.00
2023-03-11T18:11:15.472Z,0.65
2023-03-11T18:13:43.854Z,0.60
2023-03-11T18:16:15.993Z,0.60
2023-03-11T18:18:43.444Z,0.30
2023-03-11T18:21:19.018Z,0.35
2023-03-11T18:23:46.248Z,0.40
2023-03-11T18:26:15.478Z,0.30
2023-03-11T18:28:42.516Z,0.30
2023-03-11T18:31:20.577Z,0.32
2023-03-11T18:33:50.936Z,0.40
2023-03-11T18:36:21.188Z,0.30
2023-03-11T18:38:48.956Z,0.50
2023-03-11T18:41:16.027Z,0.88
2023-03-11T18:43:42.943Z,0.85
2023-03-11T18:46:13.103Z,0.88
2023-03-11T18:48:39.947Z,0.60
2023-03-11T18:51:08.411Z,0.70
2023-03-11T18:53:36.474Z,0.68
2023-03-11T18:56:06.723Z,0.60
2023-03-11T18:58:33.570Z,0.60
2023-03-11T19:01:12.417Z,0.65
2023-03-11T19:03:40.010Z,0.68
2023-03-11T19:06:11.757Z,0.52
2023-03-11T19:08:39.109Z,0.60
2023-03-11T19:11:10.788Z,0.50
2023-03-11T19:13:46.571Z,0.68
2023-03-11T19:16:16.634Z,0.50
2023-03-11T19:18:43.781Z,0.60
2023-03-11T19:21:12.814Z,0.82
2023-03-11T19:23:39.734Z,1.00
2023-03-11T19:26:07.065Z,0.68
2023-03-11T19:28:33.989Z,0.90
2023-03-11T19:31:01.245Z,0.88
2023-03-11T19:33:28.306Z,0.90
2023-03-11T19:35:57.755Z,0.80
2023-03-11T19:38:26.090Z,0.70
2023-03-11T19:41:23.298Z,1.00
2023-03-11T19:43:50.234Z,0.93
2023-03-11T19:46:20.235Z,1.20
2023-03-11T19:48:47.325Z,1.50
2023-03-11T19:51:14.418Z,1.92
2023-03-11T19:53:41.802Z,1.77
2023-03-11T19:56:09.962Z,1.80
2023-03-11T19:58:37.063Z,2.00
2023-03-11T20:01:04.116Z,1.40
2023-03-11T20:03:31.239Z,1.38
2023-03-11T20:06:04.923Z,1.00
2023-03-11T20:08:36.594Z,1.50
2023-03-11T20:11:05.791Z,1.00
2023-03-11T20:13:34.711Z,0.98
2023-03-11T20:16:10.356Z,1.30
2023-03-11T20:18:37.638Z,1.00
2023-03-11T20:21:09.952Z,1.02
2023-03-11T20:23:37.183Z,0.90
2023-03-11T20:26:15.092Z,0.68
2023-03-11T20:28:42.057Z,0.80
2023-03-11T20:31:21.011Z,0.70
2023-03-11T20:33:49.759Z,0.80
2023-03-11T20:36:21.141Z,0.60
2023-03-11T20:38:49.667Z,0.80
2023-03-11T20:41:16.959Z,0.95
2023-03-11T20:43:44.166Z,0.80
2023-03-11T20:46:11.908Z,0.77
2023-03-11T20:48:39.566Z,1.10
2023-03-11T20:51:09.931Z,1.10
2023-03-11T20:53:36.869Z,1.00
2023-03-11T20:56:12.200Z,0.85
2023-03-11T20:58:39.359Z,0.82
2023-03-11T21:01:14.396Z,0.60
2023-03-11T21:03:41.570Z,0.70
2023-03-11T21:06:18.074Z,0.60
2023-03-11T21:08:45.538Z,0.50
2023-03-11T21:11:12.905Z,0.73
2023-03-11T21:13:39.876Z,0.68
2023-03-11T21:16:08.015Z,0.43
2023-03-11T21:18:35.185Z,0.47
2023-03-11T21:21:03.837Z,0.40
2023-03-11T21:23:30.888Z,0.40
2023-03-11T21:25:59.507Z,0.75
2023-03-11T21:28:27.347Z,0.80
2023-03-11T21:30:59.004Z,0.88
2023-03-11T21:33:26.043Z,0.50
2023-03-11T21:35:58.685Z,0.60
2023-03-11T21:38:26.418Z,0.80
2023-03-11T21:40:53.902Z,0.90
2023-03-11T21:43:21.234Z,1.15
2023-03-11T21:45:48.125Z,0.85
2023-03-11T21:48:15.891Z,0.80
2023-03-11T21:50:42.702Z,0.70
2023-03-11T21:53:09.839Z,0.80
2023-03-11T21:55:36.830Z,0.95
2023-03-11T21:58:03.693Z,0.88
2023-03-11T22:00:30.569Z,0.60
2023-03-11T22:02:57.579Z,0.90
2023-03-11T22:05:25.054Z,0.60
2023-03-11T22:07:52.180Z,0.55
2023-03-11T22:10:19.692Z,0.70
2023-03-11T22:12:46.596Z,0.90
2023-03-11T22:15:13.516Z,1.80
2023-03-11T22:17:40.489Z,2.78
2023-03-11T22:20:08.139Z,2.92
2023-03-11T22:22:35.175Z,2.00
2023-03-11T22:25:02.497Z,1.92
2023-03-11T22:27:29.299Z,1.65
2023-03-11T22:29:56.024Z,1.50
2023-03-11T22:32:22.983Z,1.10
2023-03-11T22:34:49.877Z,0.90
2023-03-11T22:37:16.614Z,0.93
2023-03-11T22:39:43.474Z,0.80
2023-03-11T22:42:10.656Z,0.75
2023-03-11T22:44:37.429Z,0.73
2023-03-11T22:47:04.254Z,0.80
2023-03-11T22:49:31.041Z,0.60
2023-03-11T22:51:57.835Z,0.60
2023-03-11T22:54:24.722Z,0.70
2023-03-11T22:56:51.497Z,0.60
2023-03-11T22:59:18.316Z,0.68
2023-03-11T23:01:45.260Z,0.65
2023-03-11T23:04:12.098Z,0.80
2023-03-11T23:06:38.935Z,0.70
2023-03-11T23:09:05.868Z,0.85
2023-03-11T23:11:32.679Z,0.90
2023-03-11T23:14:00.615Z,0.70
2023-03-11T23:16:27.516Z,0.60
2023-03-11T23:18:55.940Z,0.70
2023-03-11T23:21:29.762Z,0.60
2023-03-11T23:23:57.989Z,0.45
2023-03-11T23:26:24.800Z,0.40
2023-03-11T23:28:51.606Z,0.60
2023-03-11T23:31:19.894Z,0.63
2023-03-11T23:33:46.726Z,0.70
2023-03-11T23:36:16.641Z,0.60
2023-03-11T23:38:43.540Z,0.60
2023-03-11T23:41:13.802Z,0.70
2023-03-11T23:43:41.061Z,0.70
2023-03-11T23:46:08.736Z,0.65
2023-03-11T23:48:36.062Z,0.50
2023-03-11T23:51:04.523Z,0.60
2023-03-11T23:53:32.413Z,0.60
2023-03-11T23:55:59.452Z,0.60
2023-03-11T23:58:26.224Z,0.60
